createdAt,value
2023-05-03T00:01:19.824Z,1.42
2023-05-03T00:03:49.064Z,1.30
2023-05-03T00:06:17.163Z,0.98
2023-05-03T00:08:44.872Z,0.90
2023-05-03T00:11:12.652Z,1.00
2023-05-03T00:13:40.215Z,1.40
2023-05-03T00:16:08.203Z,0.90
2023-05-03T00:18:35.957Z,1.00
2023-05-03T00:21:03.723Z,1.08
2023-05-03T00:23:31.525Z,1.25
2023-05-03T00:26:00.184Z,1.33
2023-05-03T00:28:27.845Z,1.35
2023-05-03T00:30:55.798Z,1.70
2023-05-03T00:33:23.813Z,1.20
2023-05-03T00:35:51.474Z,1.20
2023-05-03T00:38:19.056Z,1.33
2023-05-03T00:40:46.698Z,1.10
2023-05-03T00:43:15.497Z,1.08
2023-05-03T00:45:45.758Z,1.02
2023-05-03T00:48:13.702Z,1.00
2023-05-03T00:50:41.905Z,1.40
2023-05-03T00:53:09.651Z,1.08
2023-05-03T00:55:37.754Z,2.58
2023-05-03T00:58:05.702Z,1.42
2023-05-03T01:00:33.464Z,1.27
2023-05-03T01:03:01.317Z,1.35
2023-05-03T01:05:42.093Z,1.40
2023-05-03T01:08:24.300Z,0.95
2023-05-03T01:11:11.140Z,1.30
2023-05-03T01:14:10.272Z,1.23
2023-05-03T01:16:44.824Z,0.85
2023-05-03T01:19:30.328Z,1.30
2023-05-03T01:22:23.280Z,0.70
2023-05-03T01:25:21.699Z,0.80
2023-05-03T01:27:50.177Z,0.80
2023-05-03T01:30:18.680Z,1.23
2023-05-03T01:33:14.668Z,0.80
2023-05-03T01:36:01.416Z,0.98
2023-05-03T01:38:36.960Z,0.90
2023-05-03T01:41:11.284Z,1.27
2023-05-03T01:43:40.984Z,1.00
2023-05-03T01:46:09.332Z,1.00
2023-05-03T01:48:36.899Z,1.00
2023-05-03T01:51:04.823Z,1.10
2023-05-03T01:53:32.597Z,1.10
2023-05-03T01:56:00.580Z,0.90
2023-05-03T01:58:28.525Z,0.80
2023-05-03T02:00:56.998Z,1.10
2023-05-03T02:03:24.875Z,0.90
2023-05-03T02:05:52.817Z,1.05
2023-05-03T02:08:20.465Z,0.98
2023-05-03T02:10:48.156Z,0.85
2023-05-03T02:13:19.977Z,0.95
2023-05-03T02:15:48.056Z,0.73
2023-05-03T02:18:20.695Z,0.88
2023-05-03T02:20:48.649Z,0.90
2023-05-03T02:23:16.869Z,0.95
2023-05-03T02:25:44.581Z,0.80
2023-05-03T02:28:13.634Z,0.68
2023-05-03T02:30:41.593Z,1.10
2023-05-03T02:33:09.446Z,0.93
2023-05-03T02:35:39.147Z,1.20
2023-05-03T02:38:06.859Z,0.70
2023-05-03T02:40:34.540Z,1.08
2023-05-03T02:43:04.154Z,0.80
2023-05-03T02:45:32.461Z,1.00
2023-05-03T02:48:01.248Z,0.80
2023-05-03T02:50:29.156Z,0.90
2023-05-03T02:52:57.084Z,0.82
2023-05-03T02:55:25.456Z,0.82
2023-05-03T02:57:53.212Z,0.70
2023-05-03T03:00:21.941Z,0.88
2023-05-03T03:02:50.000Z,0.90
2023-05-03T03:05:18.081Z,1.00
2023-05-03T03:07:50.392Z,0.80
2023-05-03T03:10:18.680Z,0.90
2023-05-03T03:12:47.212Z,1.00
2023-05-03T03:15:23.453Z,0.80
2023-05-03T03:17:52.540Z,0.88
2023-05-03T03:20:20.324Z,0.80
2023-05-03T03:22:49.045Z,0.88
2023-05-03T03:25:17.271Z,0.73
2023-05-03T03:27:44.845Z,0.93
2023-05-03T03:30:14.533Z,0.98
2023-05-03T03:32:56.267Z,1.17
2023-05-03T03:35:32.357Z,1.00
2023-05-03T03:38:00.987Z,1.17
2023-05-03T03:40:29.071Z,0.88
2023-05-03T03:43:00.414Z,0.70
2023-05-03T03:45:28.271Z,1.30
2023-05-03T03:47:58.709Z,0.70
2023-05-03T03:50:29.109Z,0.88
2023-05-03T03:52:57.857Z,0.70
2023-05-03T03:55:26.019Z,0.70
2023-05-03T03:57:56.144Z,0.95
2023-05-03T04:00:26.393Z,0.80
2023-05-03T04:03:29.247Z,1.33
2023-05-03T04:05:57.517Z,0.80
2023-05-03T04:08:26.498Z,0.75
2023-05-03T04:10:54.126Z,0.80
2023-05-03T04:13:22.234Z,0.90
2023-05-03T04:16:00.778Z,1.08
2023-05-03T04:18:30.466Z,0.70
2023-05-03T04:21:00.213Z,1.35
2023-05-03T04:23:28.929Z,1.23
2023-05-03T04:25:57.495Z,1.25
2023-05-03T04:28:27.395Z,0.75
2023-05-03T04:30:55.277Z,1.38
2023-05-03T04:33:26.350Z,1.02
2023-05-03T04:35:56.844Z,1.10
2023-05-03T04:38:26.171Z,1.10
2023-05-03T04:40:54.631Z,1.20
2023-05-03T04:43:23.953Z,1.38
2023-05-03T04:45:53.934Z,1.10
2023-05-03T04:48:27.089Z,1.10
2023-05-03T04:50:55.140Z,0.90
2023-05-03T04:53:24.234Z,1.10
2023-05-03T04:56:07.873Z,1.30
2023-05-03T04:58:39.720Z,0.93
2023-05-03T05:01:08.712Z,1.08
2023-05-03T05:03:39.498Z,0.80
2023-05-03T05:06:12.850Z,0.93
2023-05-03T05:08:42.656Z,1.08
2023-05-03T05:11:15.187Z,1.13
2023-05-03T05:13:43.709Z,1.20
2023-05-03T05:16:11.392Z,1.08
2023-05-03T05:18:43.296Z,0.80
2023-05-03T05:21:12.868Z,0.95
2023-05-03T05:23:40.660Z,0.88
2023-05-03T05:26:08.696Z,1.05
2023-05-03T05:28:37.511Z,1.23
2023-05-03T05:31:05.973Z,0.90
2023-05-03T05:33:33.901Z,1.00
2023-05-03T05:36:02.758Z,1.05
2023-05-03T05:38:33.270Z,0.80
2023-05-03T05:41:01.532Z,1.00
2023-05-03T05:43:29.965Z,0.77
2023-05-03T05:45:58.068Z,0.93
2023-05-03T05:48:26.546Z,0.88
2023-05-03T05:50:54.907Z,0.90
2023-05-03T05:53:24.052Z,1.00
2023-05-03T05:56:00.506Z,1.02
2023-05-03T05:58:30.594Z,0.95
2023-05-03T06:01:01.764Z,0.90
2023-05-03T06:03:33.186Z,0.95
2023-05-03T06:06:03.877Z,0.90
2023-05-03T06:08:32.130Z,1.10
2023-05-03T06:11:01.429Z,1.02
2023-05-03T06:13:32.079Z,0.82
2023-05-03T06:16:01.303Z,1.10
2023-05-03T06:18:29.957Z,0.93
2023-05-03T06:20:57.723Z,1.05
2023-05-03T06:23:28.161Z,1.25
2023-05-03T06:25:58.398Z,1.05
2023-05-03T06:28:27.474Z,0.93
2023-05-03T06:30:56.691Z,1.05
2023-05-03T06:33:24.544Z,1.20
2023-05-03T06:35:53.355Z,1.00
2023-05-03T06:38:21.578Z,1.17
2023-05-03T06:40:50.799Z,1.02
2023-05-03T06:43:18.662Z,1.05
2023-05-03T06:45:56.214Z,1.08
2023-05-03T06:48:24.559Z,1.10
2023-05-03T06:50:52.529Z,1.13
2023-05-03T06:53:20.240Z,1.17
2023-05-03T06:55:48.107Z,1.27
2023-05-03T06:58:17.230Z,1.60
2023-05-03T07:00:47.844Z,1.10
2023-05-03T07:03:15.905Z,0.88
2023-05-03T07:05:44.066Z,1.00
2023-05-03T07:08:11.849Z,1.08
2023-05-03T07:10:39.634Z,1.23
2023-05-03T07:13:07.376Z,1.02
2023-05-03T07:15:35.170Z,1.38
2023-05-03T07:18:03.936Z,1.13
2023-05-03T07:20:31.600Z,1.02
2023-05-03T07:22:59.754Z,1.50
2023-05-03T07:25:27.675Z,1.40
2023-05-03T07:27:55.785Z,1.48
2023-05-03T07:30:23.878Z,1.02
2023-05-03T07:32:52.247Z,1.90
2023-05-03T07:35:20.649Z,1.33
2023-05-03T07:37:48.531Z,1.52
2023-05-03T07:40:16.799Z,1.70
2023-05-03T07:42:44.863Z,1.50
2023-05-03T07:45:13.259Z,1.58
2023-05-03T07:47:41.510Z,1.70
2023-05-03T07:50:10.677Z,1.23
2023-05-03T07:52:40.406Z,1.48
2023-05-03T07:55:09.448Z,1.10
2023-05-03T07:57:37.138Z,1.83
2023-05-03T08:00:06.410Z,1.83
2023-05-03T08:02:40.834Z,1.33
2023-05-03T08:05:10.069Z,1.52
2023-05-03T08:07:38.329Z,1.40
2023-05-03T08:10:07.738Z,1.23
2023-05-03T08:12:36.571Z,1.25
2023-05-03T08:15:07.385Z,1.55
2023-05-03T08:17:43.494Z,1.55
2023-05-03T08:20:12.650Z,1.35
2023-05-03T08:22:41.680Z,1.75
2023-05-03T08:25:10.181Z,1.15
2023-05-03T08:27:39.371Z,1.38
2023-05-03T08:30:08.829Z,1.20
2023-05-03T08:32:36.524Z,1.33
2023-05-03T08:35:07.726Z,1.15
2023-05-03T08:37:43.667Z,1.50
2023-05-03T08:40:14.378Z,1.05
2023-05-03T08:42:45.020Z,1.30
2023-05-03T08:45:17.336Z,1.30
2023-05-03T08:47:46.019Z,1.25
2023-05-03T08:50:15.772Z,1.40
2023-05-03T08:52:44.559Z,1.73
2023-05-03T08:55:13.014Z,1.33
2023-05-03T08:57:41.551Z,1.35
2023-05-03T09:00:13.451Z,1.17
2023-05-03T09:02:42.040Z,1.23
2023-05-03T09:05:16.170Z,1.83
2023-05-03T09:08:09.760Z,1.20
2023-05-03T09:10:42.914Z,1.65
2023-05-03T09:13:12.388Z,1.35
2023-05-03T09:15:40.316Z,1.40
2023-05-03T09:18:17.820Z,1.63
2023-05-03T09:20:53.620Z,1.50
2023-05-03T09:23:27.441Z,1.60
2023-05-03T09:25:56.277Z,1.50
2023-05-03T09:28:24.128Z,1.33
2023-05-03T09:31:07.390Z,1.35
2023-05-03T09:33:38.496Z,1.30
2023-05-03T09:36:07.428Z,1.50
2023-05-03T09:38:39.354Z,1.10
2023-05-03T09:41:07.468Z,1.25
2023-05-03T09:43:38.802Z,1.10
2023-05-03T09:46:12.584Z,1.40
2023-05-03T09:48:41.364Z,1.52
2023-05-03T09:51:11.688Z,0.95
2023-05-03T09:53:42.072Z,1.15
2023-05-03T09:56:14.012Z,1.33
2023-05-03T09:58:43.938Z,1.58
2023-05-03T10:01:12.445Z,1.17
2023-05-03T10:03:53.105Z,1.08
2023-05-03T10:06:30.291Z,1.10
2023-05-03T10:09:20.961Z,1.48
2023-05-03T10:11:54.722Z,1.92
2023-05-03T10:14:22.841Z,1.35
2023-05-03T10:17:01.572Z,1.50
2023-05-03T10:19:38.139Z,1.30
2023-05-03T10:22:11.532Z,2.00
2023-05-03T10:25:03.888Z,1.10
2023-05-03T10:27:47.164Z,1.55
2023-05-03T10:30:26.831Z,1.33
2023-05-03T10:32:55.503Z,1.10
2023-05-03T10:35:28.792Z,1.42
2023-05-03T10:37:57.903Z,1.35
2023-05-03T10:40:43.646Z,1.45
2023-05-03T10:43:30.695Z,1.27
2023-05-03T10:46:06.946Z,1.05
2023-05-03T10:48:35.830Z,1.75
2023-05-03T10:51:34.132Z,1.52
2023-05-03T10:54:01.881Z,1.50
2023-05-03T10:56:29.960Z,1.45
2023-05-03T10:58:59.222Z,1.42
2023-05-03T11:01:28.928Z,1.25
2023-05-03T11:04:22.377Z,1.00
2023-05-03T11:06:52.222Z,1.15
2023-05-03T11:09:20.196Z,1.30
2023-05-03T11:11:48.068Z,1.58
2023-05-03T11:14:16.082Z,1.10
2023-05-03T11:16:50.953Z,1.88
2023-05-03T11:21:48.465Z,1.40
2023-05-03T11:24:16.359Z,1.20
2023-05-03T11:26:44.085Z,1.30
2023-05-03T11:29:13.385Z,1.55
2023-05-03T11:31:43.577Z,1.42
2023-05-03T11:34:16.236Z,1.33
2023-05-03T11:36:44.598Z,1.15
2023-05-03T11:39:13.992Z,1.27
2023-05-03T11:41:44.838Z,1.40
2023-05-03T11:44:17.595Z,1.55
2023-05-03T11:46:47.510Z,1.85
2023-05-03T11:49:20.301Z,1.58
2023-05-03T11:51:51.727Z,1.48
2023-05-03T11:54:27.016Z,1.33
2023-05-03T11:57:00.067Z,1.25
2023-05-03T11:59:40.916Z,1.50
2023-05-03T12:02:14.476Z,1.42
2023-05-03T12:04:45.787Z,1.45
2023-05-03T12:07:17.630Z,1.77
2023-05-03T12:09:52.844Z,1.50
2023-05-03T12:12:32.817Z,1.20
2023-05-03T12:15:04.538Z,1.17
2023-05-03T12:17:45.627Z,1.65
2023-05-03T12:22:58.894Z,1.27
2023-05-03T12:30:39.940Z,1.13
2023-05-03T12:33:10.108Z,1.10
2023-05-03T12:35:40.600Z,1.20
2023-05-03T12:38:09.863Z,1.13
2023-05-03T12:40:39.801Z,1.10
2023-05-03T12:43:08.296Z,1.08
2023-05-03T12:45:39.959Z,1.35
2023-05-03T12:48:09.416Z,1.42
2023-05-03T12:50:38.639Z,1.17
2023-05-03T12:53:09.715Z,1.10
2023-05-03T12:55:43.354Z,1.10
2023-05-03T13:00:53.835Z,1.00
2023-05-03T13:03:34.221Z,1.33
2023-05-03T13:06:13.147Z,1.73
2023-05-03T13:11:14.196Z,1.10
2023-05-03T13:13:42.280Z,1.63
2023-05-03T13:16:10.053Z,1.15
2023-05-03T13:18:39.051Z,1.58
2023-05-03T13:21:08.234Z,1.35
2023-05-03T13:23:36.013Z,1.08
2023-05-03T13:26:03.771Z,1.05
2023-05-03T13:28:31.462Z,1.23
2023-05-03T13:30:59.163Z,1.30
2023-05-03T13:33:29.020Z,1.17
2023-05-03T13:35:56.988Z,1.40
2023-05-03T13:38:25.023Z,1.10
2023-05-03T13:40:52.973Z,1.20
2023-05-03T13:43:20.737Z,1.30
2023-05-03T13:45:51.719Z,1.30
2023-05-03T13:48:19.793Z,1.63
2023-05-03T13:50:47.888Z,1.73
2023-05-03T13:53:15.954Z,1.30
2023-05-03T13:55:43.958Z,1.45
2023-05-03T13:58:11.687Z,1.23
2023-05-03T14:00:39.546Z,1.20
2023-05-03T14:03:07.753Z,1.20
2023-05-03T14:05:36.383Z,1.13
2023-05-03T14:08:05.495Z,1.30
2023-05-03T14:10:36.743Z,1.30
2023-05-03T14:13:04.549Z,1.17
2023-05-03T14:15:32.407Z,1.00
2023-05-03T14:18:04.636Z,1.20
2023-05-03T14:20:35.166Z,1.45
2023-05-03T14:23:06.691Z,1.27
2023-05-03T14:25:35.109Z,1.10
2023-05-03T14:28:02.755Z,1.20
2023-05-03T14:30:30.723Z,1.30
2023-05-03T14:46:39.561Z,1.00
2023-05-03T14:49:07.470Z,1.02
2023-05-03T14:51:37.538Z,1.23
2023-05-03T14:54:05.153Z,1.40
2023-05-03T14:56:32.695Z,1.50
2023-05-03T14:59:01.348Z,1.25
2023-05-03T15:01:29.199Z,1.50
2023-05-03T15:03:56.958Z,1.13
2023-05-03T15:06:32.069Z,1.30
2023-05-03T15:09:00.154Z,1.10
2023-05-03T15:11:30.123Z,1.30
2023-05-03T15:13:58.986Z,1.52
2023-05-03T15:16:27.171Z,1.25
2023-05-03T15:18:54.836Z,1.30
2023-05-03T15:21:22.620Z,1.08
2023-05-03T15:23:52.012Z,1.30
2023-05-03T15:26:19.611Z,1.25
2023-05-03T15:28:47.242Z,1.20
2023-05-03T15:31:15.926Z,1.42
2023-05-03T15:33:45.399Z,1.05
2023-05-03T15:36:17.119Z,1.25
2023-05-03T15:38:44.764Z,1.20
2023-05-03T15:41:12.798Z,1.40
2023-05-03T15:43:40.427Z,1.38
2023-05-03T15:46:08.387Z,1.50
2023-05-03T15:48:36.862Z,1.20
2023-05-03T15:51:04.995Z,1.25
2023-05-03T15:53:32.879Z,1.05
2023-05-03T15:56:02.712Z,1.52
2023-05-03T15:58:31.200Z,1.10
2023-05-03T16:00:59.568Z,1.35
2023-05-03T16:03:28.889Z,1.65
2023-05-03T16:05:57.306Z,1.23
2023-05-03T16:08:25.465Z,1.42
2023-05-03T16:10:53.334Z,1.50
2023-05-03T16:13:21.091Z,1.77
2023-05-03T16:15:56.331Z,1.20
2023-05-03T16:18:24.879Z,1.17
2023-05-03T16:20:52.720Z,1.20
2023-05-03T16:23:20.853Z,1.70
2023-05-03T16:25:48.587Z,1.80
2023-05-03T16:28:16.617Z,1.73
2023-05-03T16:30:46.193Z,1.90
2023-05-03T16:33:13.703Z,1.80
2023-05-03T16:35:42.671Z,1.30
2023-05-03T16:38:10.381Z,1.50
2023-05-03T16:40:40.450Z,1.30
2023-05-03T16:43:08.762Z,1.33
2023-05-03T16:45:37.939Z,1.58
2023-05-03T16:48:08.327Z,1.15
2023-05-03T16:50:38.308Z,1.55
2023-05-03T16:53:06.406Z,1.50
2023-05-03T16:55:34.637Z,1.80
2023-05-03T16:58:02.329Z,1.58
2023-05-03T17:00:30.412Z,1.50
2023-05-03T17:02:58.175Z,2.00
2023-05-03T17:05:33.231Z,1.70
2023-05-03T17:10:31.832Z,1.42
2023-05-03T17:13:01.457Z,1.60
2023-05-03T17:15:29.317Z,1.67
2023-05-03T17:17:56.956Z,2.28
2023-05-03T17:20:24.844Z,1.40
2023-05-03T17:22:52.840Z,1.63
2023-05-03T17:25:23.601Z,1.50
2023-05-03T17:27:52.900Z,1.38
2023-05-03T17:30:21.526Z,1.20
2023-05-03T17:32:49.518Z,1.50
2023-05-03T17:35:17.846Z,1.95
2023-05-03T17:37:46.049Z,1.50
2023-05-03T17:40:14.189Z,1.58
2023-05-03T17:42:42.670Z,1.65
2023-05-03T17:45:11.478Z,1.80
2023-05-03T17:47:40.315Z,1.42
2023-05-03T17:50:09.982Z,1.30
2023-05-03T17:52:38.113Z,1.65
2023-05-03T17:55:07.031Z,1.33
2023-05-03T17:57:34.708Z,1.73
2023-05-03T18:00:02.559Z,2.33
2023-05-03T18:02:32.835Z,1.92
2023-05-03T18:05:00.892Z,1.55
2023-05-03T18:07:29.995Z,1.60
2023-05-03T18:09:57.680Z,1.77
2023-05-03T18:12:28.386Z,1.88
2023-05-03T18:15:00.140Z,2.00
2023-05-03T18:17:29.162Z,1.83
2023-05-03T18:19:57.092Z,2.03
2023-05-03T18:22:27.790Z,1.77
2023-05-03T18:24:58.309Z,2.05
2023-05-03T18:27:26.353Z,1.77
2023-05-03T18:29:54.331Z,1.88
2023-05-03T18:32:25.286Z,1.88
2023-05-03T18:34:52.741Z,1.88
2023-05-03T18:37:22.361Z,1.85
2023-05-03T18:39:52.066Z,1.77
2023-05-03T18:42:20.636Z,1.90
2023-05-03T18:44:49.076Z,1.20
2023-05-03T18:47:20.949Z,2.00
2023-05-03T18:49:53.311Z,2.00
2023-05-03T18:52:22.316Z,2.13
2023-05-03T18:54:50.917Z,1.50
2023-05-03T18:57:19.164Z,2.00
2023-05-03T18:59:59.840Z,1.40
2023-05-03T19:02:31.633Z,1.48
2023-05-03T19:05:00.434Z,2.20
2023-05-03T19:07:28.588Z,1.50
2023-05-03T19:09:58.699Z,1.73
2023-05-03T19:12:27.149Z,1.95
2023-05-03T19:14:58.412Z,1.95
2023-05-03T19:17:28.772Z,1.60
2023-05-03T19:19:56.397Z,2.17
2023-05-03T19:22:24.161Z,1.73
2023-05-03T19:24:51.944Z,1.95
2023-05-03T19:27:20.140Z,2.63
2023-05-03T19:29:48.600Z,2.47
2023-05-03T19:32:19.871Z,2.72
2023-05-03T19:34:47.595Z,2.83
2023-05-03T19:37:15.409Z,2.03
2023-05-03T19:39:43.442Z,3.28
2023-05-03T19:42:14.574Z,2.45
2023-05-03T19:44:42.409Z,2.50
2023-05-03T19:47:10.433Z,2.35
2023-05-03T19:49:38.536Z,2.30
2023-05-03T19:52:06.378Z,2.03
2023-05-03T19:54:34.190Z,2.22
2023-05-03T19:57:08.938Z,1.77
2023-05-03T19:59:37.104Z,2.50
2023-05-03T20:02:07.698Z,2.53
2023-05-03T20:04:35.722Z,1.98
2023-05-03T20:07:04.203Z,2.85
2023-05-03T20:09:31.966Z,1.80
2023-05-03T20:12:02.572Z,2.05
2023-05-03T20:14:30.172Z,2.08
2023-05-03T20:16:58.107Z,2.20
2023-05-03T20:19:29.844Z,1.90
2023-05-03T20:21:57.678Z,2.30
2023-05-03T20:24:25.527Z,1.90
2023-05-03T20:26:53.823Z,1.77
2023-05-03T20:29:21.370Z,2.42
2023-05-03T20:31:53.720Z,2.05
2023-05-03T20:34:21.966Z,1.73
2023-05-03T20:36:51.382Z,2.47
2023-05-03T20:39:19.580Z,2.33
2023-05-03T20:41:47.379Z,2.35
2023-05-03T20:44:15.809Z,2.10
2023-05-03T20:46:45.690Z,1.63
2023-05-03T20:49:13.611Z,1.95
2023-05-03T20:51:41.428Z,1.80
2023-05-03T20:54:09.243Z,2.03
2023-05-03T20:56:37.130Z,1.98
2023-05-03T20:59:05.730Z,2.10
2023-05-03T21:01:33.581Z,2.20
2023-05-03T21:04:03.434Z,1.88
2023-05-03T21:06:33.131Z,1.75
2023-05-03T21:09:01.015Z,2.22
2023-05-03T21:11:28.856Z,1.38
2023-05-03T21:13:56.708Z,1.67
2023-05-03T21:16:24.847Z,1.60
2023-05-03T21:18:53.760Z,1.63
2023-05-03T21:21:21.402Z,2.08
2023-05-03T21:23:49.346Z,1.65
2023-05-03T21:26:17.316Z,1.92
2023-05-03T21:28:45.409Z,2.17
2023-05-03T21:31:13.639Z,1.48
2023-05-03T21:33:41.992Z,1.70
2023-05-03T21:36:10.191Z,2.00
2023-05-03T21:38:39.590Z,2.20
2023-05-03T21:41:07.769Z,1.90
2023-05-03T21:43:35.958Z,1.67
2023-05-03T21:46:10.398Z,1.60
2023-05-03T21:48:38.142Z,1.50
2023-05-03T21:51:06.614Z,1.67
2023-05-03T21:53:35.722Z,1.77
2023-05-03T21:56:03.398Z,1.58
2023-05-03T21:58:31.252Z,2.05
2023-05-03T22:00:59.225Z,1.30
2023-05-03T22:03:27.381Z,1.48
2023-05-03T22:05:55.510Z,1.60
2023-05-03T22:08:23.437Z,1.77
2023-05-03T22:10:51.738Z,1.30
2023-05-03T22:13:19.672Z,1.45
2023-05-03T22:15:47.561Z,1.42
2023-05-03T22:18:15.725Z,1.42
2023-05-03T22:20:43.609Z,1.50
2023-05-03T22:23:11.383Z,1.60
2023-05-03T22:25:39.082Z,1.92
2023-05-03T22:28:06.521Z,1.52
2023-05-03T22:30:34.056Z,1.80
2023-05-03T22:33:02.187Z,1.50
2023-05-03T22:35:29.604Z,1.45
2023-05-03T22:37:57.386Z,1.42
2023-05-03T22:40:25.058Z,1.25
2023-05-03T22:42:53.122Z,1.40
2023-05-03T22:45:21.183Z,1.25
2023-05-03T22:47:51.953Z,1.30
2023-05-03T22:50:20.466Z,1.48
2023-05-03T22:52:48.101Z,1.60
2023-05-03T22:55:15.651Z,1.40
2023-05-03T22:57:43.273Z,1.20
2023-05-03T23:00:11.806Z,1.40
2023-05-03T23:02:39.338Z,1.25
2023-05-03T23:05:07.884Z,1.00
2023-05-03T23:07:35.948Z,1.00
2023-05-03T23:10:05.404Z,1.10
2023-05-03T23:12:33.139Z,1.20
2023-05-03T23:15:00.868Z,1.30
2023-05-03T23:17:28.664Z,1.00
2023-05-03T23:19:56.513Z,1.17
2023-05-03T23:22:23.876Z,1.23
2023-05-03T23:24:51.303Z,1.30
2023-05-03T23:27:18.748Z,1.00
2023-05-03T23:29:48.389Z,1.23
2023-05-03T23:32:16.445Z,1.50
2023-05-03T23:34:44.363Z,1.48
2023-05-03T23:37:11.863Z,1.40
2023-05-03T23:39:44.725Z,1.25
2023-05-03T23:42:13.383Z,1.10
2023-05-03T23:44:53.957Z,1.73
2023-05-03T23:47:23.618Z,1.48
2023-05-03T23:49:51.524Z,1.17
2023-05-03T23:52:20.610Z,1.23
2023-05-03T23:54:48.424Z,1.20
2023-05-03T23:57:16.055Z,1.40
2023-05-03T23:59:43.759Z,1.00
